Date,TemperatureHighF,TemperatureAvgF,TemperatureLowF,DewpointHighF,DewpointAvgF,DewpointLowF,HumidityHigh,HumidityAvg,HumidityLow,PressureMaxIn,PressureMinIn,WindSpeedMaxMPH,WindSpeedAvgMPH,GustSpeedMaxMPH,PrecipitationSumIn
2013-10-1,74.2,56.5,43.1,43.3,35.2,27.9,63,46,28,30.15,30.04,11,2,12,0.00
2013-10-2,69.8,53.9,40.0,36.3,28.6,22.8,56,40,22,30.17,30.04,17,3,17,0.00
2013-10-3,66.8,52.9,36.4,38.2,29.8,23.0,69,43,25,30.10,29.92,22,3,22,0.00
2013-10-4,52.7,45.6,32.9,28.9,19.0,8.6,61,36,18,30.32,29.91,23,4,23,0.00
2013-10-5,52.6,39.0,24.4,24.6,18.8,14.4,68,45,30,30.62,30.32,16,2,16,0.00
2013-10-6,65.0,45.9,30.0,28.2,20.0,13.7,63,39,17,30.67,30.49,13,2,13,0.00
2013-10-7,68.2,50.0,36.5,32.6,24.1,16.8,48,37,23,30.53,30.29,16,3,16,0.00
2013-10-8,67.6,51.2,38.5,36.0,28.3,21.0,62,43,27,30.31,30.04,15,3,15,0.00
2013-10-9,65.4,51.4,37.1,36.7,30.7,24.9,67,47,25,30.11,30.00,23,3,23,0.00
2013-10-10,60.5,45.4,32.4,39.9,34.3,26.5,90,67,35,30.15,29.77,33,4,33,0.41
2013-10-11,49.4,37.5,28.3,35.8,28.9,23.3,84,72,53,30.45,30.14,15,2,15,0.05
2013-10-12,58.5,43.8,29.3,36.2,29.7,24.3,82,60,36,30.51,30.37,17,3,17,0.00
2013-10-13,64.8,49.9,35.5,45.2,36.3,29.1,83,62,37,30.45,30.15,24,3,24,0.00
2013-10-14,54.2,45.5,32.2,43.4,30.5,20.4,91,59,29,30.31,30.08,26,4,26,0.07
2013-10-15,56.3,40.9,29.0,33.4,26.1,17.8,88,57,37,30.41,30.26,17,3,17,0.06
2013-10-16,46.6,35.9,29.4,37.3,28.9,21.1,92,77,47,30.49,30.30,16,2,16,0.31
2013-10-17,53.4,38.5,26.5,29.7,22.0,14.3,78,55,26,30.52,30.29,12,2,12,0.00
2013-10-18,51.9,39.9,27.8,27.8,20.4,13.8,63,46,32,30.37,30.28,13,2,14,0.00
2013-10-19,54.8,39.2,24.4,24.2,19.7,16.4,71,48,27,30.52,30.37,5,2,14,0.00
2013-10-20,57.9,43.6,28.9,27.4,22.1,19.2,67,45,26,30.41,30.17,5,2,15,0.00
2013-10-21,54.5,42.1,29.5,32.2,26.6,21.5,78,56,31,30.49,30.23,11,2,11,0.00
2013-10-22,60.6,43.8,31.0,29.4,23.2,19.8,70,47,23,30.58,30.45,11,3,11,0.00
2013-10-23,64.1,46.7,34.6,30.3,23.5,20.1,59,43,20,30.49,30.33,11,3,11,0.00
2013-10-24,64.8,48.0,35.4,32.5,26.3,21.6,58,45,22,30.45,30.33,14,3,14,0.00
2013-10-25,56.1,45.4,36.2,45.8,38.9,29.4,93,79,52,30.46,30.30,22,2,22,0.68
2013-10-26,57.4,43.8,34.4,40.6,34.9,31.2,89,73,45,30.55,30.40,15,2,15,0.01
2013-10-27,57.4,45.1,33.2,38.7,33.5,29.0,86,66,45,30.51,30.18,8,2,12,0.00
2013-10-28,56.9,44.0,34.4,38.1,29.5,23.5,81,59,32,30.22,30.12,24,3,24,0.00
2013-10-29,56.4,47.7,36.3,34.1,25.7,21.2,77,43,31,30.25,30.04,33,5,33,0.01
2013-10-30,47.5,37.0,29.5,35.1,31.1,26.1,91,80,45,30.19,30.01,23,2,23,0.19
2013-10-31,39.5,32.2,26.1,30.4,26.4,22.8,90,79,65,30.45,30.19,13,2,13,0.38